sensor_id;sensor_type;location;lat;lon;timestamp;temperature;humidity
75281;HTU21D;63874;47.230;39.620;2022-10-04T00:01:08;13.65;70.96
75281;HTU21D;63874;47.230;39.620;2022-10-04T00:03:47;13.69;70.84
75281;HTU21D;63874;47.230;39.620;2022-10-04T00:06:18;13.71;70.77
75281;HTU21D;63874;47.230;39.620;2022-10-04T00:11:35;13.80;70.67
75281;HTU21D;63874;47.230;39.620;2022-10-04T00:14:08;13.86;70.63
75281;HTU21D;63874;47.230;39.620;2022-10-04T00:16:39;13.88;70.49
75281;HTU21D;63874;47.230;39.620;2022-10-04T00:24:30;14.04;69.89
75281;HTU21D;63874;47.230;39.620;2022-10-04T00:32:28;14.21;69.19
75281;HTU21D;63874;47.230;39.620;2022-10-04T00:34:55;14.26;69.00
75281;HTU21D;63874;47.230;39.620;2022-10-04T00:37:23;14.30;68.81
75281;HTU21D;63874;47.230;39.620;2022-10-04T00:40:12;14.35;68.55
75281;HTU21D;63874;47.230;39.620;2022-10-04T00:46:06;14.37;68.36
75281;HTU21D;63874;47.230;39.620;2022-10-04T00:54:02;14.30;67.82
75281;HTU21D;63874;47.230;39.620;2022-10-04T00:59:40;14.27;67.89
75281;HTU21D;63874;47.230;39.620;2022-10-04T01:02:20;14.29;67.68
75281;HTU21D;63874;47.230;39.620;2022-10-04T01:07:36;14.27;67.50
75281;HTU21D;63874;47.230;39.620;2022-10-04T01:10:25;14.25;67.47
75281;HTU21D;63874;47.230;39.620;2022-10-04T01:16:21;14.22;67.60
75281;HTU21D;63874;47.230;39.620;2022-10-04T01:18:47;14.15;67.62
75281;HTU21D;63874;47.230;39.620;2022-10-04T01:23:47;14.10;67.78
75281;HTU21D;63874;47.230;39.620;2022-10-04T01:28:57;14.01;67.86
75281;HTU21D;63874;47.230;39.620;2022-10-04T01:31:31;13.96;67.91
75281;HTU21D;63874;47.230;39.620;2022-10-04T01:33:59;13.90;68.00
75281;HTU21D;63874;47.230;39.620;2022-10-04T01:36:25;13.83;68.03
75281;HTU21D;63874;47.230;39.620;2022-10-04T01:38:53;13.79;68.01
75281;HTU21D;63874;47.230;39.620;2022-10-04T01:41:24;13.70;68.12
75281;HTU21D;63874;47.230;39.620;2022-10-04T01:43:57;13.65;68.25
75281;HTU21D;63874;47.230;39.620;2022-10-04T01:46:35;13.62;68.42
75281;HTU21D;63874;47.230;39.620;2022-10-04T01:49:08;13.55;68.56
75281;HTU21D;63874;47.230;39.620;2022-10-04T01:51:42;13.51;68.68
75281;HTU21D;63874;47.230;39.620;2022-10-04T01:54:19;13.47;68.83
75281;HTU21D;63874;47.230;39.620;2022-10-04T01:56:55;13.44;68.88
75281;HTU21D;63874;47.230;39.620;2022-10-04T01:59:27;13.39;68.92
75281;HTU21D;63874;47.230;39.620;2022-10-04T02:02:01;13.36;68.98
75281;HTU21D;63874;47.230;39.620;2022-10-04T02:04:35;13.35;68.99
75281;HTU21D;63874;47.230;39.620;2022-10-04T02:07:10;13.34;69.24
75281;HTU21D;63874;47.230;39.620;2022-10-04T02:09:39;13.32;69.32
75281;HTU21D;63874;47.230;39.620;2022-10-04T02:12:09;13.30;69.48
75281;HTU21D;63874;47.230;39.620;2022-10-04T02:14:36;13.27;69.65
75281;HTU21D;63874;47.230;39.620;2022-10-04T02:17:07;13.24;69.68
75281;HTU21D;63874;47.230;39.620;2022-10-04T02:19:38;13.27;69.91
75281;HTU21D;63874;47.230;39.620;2022-10-04T02:22:08;13.27;69.72
75281;HTU21D;63874;47.230;39.620;2022-10-04T02:24:41;13.24;69.77
75281;HTU21D;63874;47.230;39.620;2022-10-04T02:27:07;13.27;69.94
75281;HTU21D;63874;47.230;39.620;2022-10-04T02:29:33;13.26;70.03
75281;HTU21D;63874;47.230;39.620;2022-10-04T02:31:59;13.25;70.05
75281;HTU21D;63874;47.230;39.620;2022-10-04T02:34:45;13.23;70.10
75281;HTU21D;63874;47.230;39.620;2022-10-04T02:37:12;13.25;70.07
75281;HTU21D;63874;47.230;39.620;2022-10-04T02:40:12;13.30;70.23
75281;HTU21D;63874;47.230;39.620;2022-10-04T02:42:56;13.26;70.15
75281;HTU21D;63874;47.230;39.620;2022-10-04T02:48:30;13.33;70.10
75281;HTU21D;63874;47.230;39.620;2022-10-04T02:51:20;13.37;69.82
75281;HTU21D;63874;47.230;39.620;2022-10-04T02:53:59;13.37;69.70
75281;HTU21D;63874;47.230;39.620;2022-10-04T02:56:26;13.35;69.64
75281;HTU21D;63874;47.230;39.620;2022-10-04T02:58:53;13.37;69.49
75281;HTU21D;63874;47.230;39.620;2022-10-04T03:01:26;13.43;69.25
75281;HTU21D;63874;47.230;39.620;2022-10-04T03:03:53;13.44;69.11
75281;HTU21D;63874;47.230;39.620;2022-10-04T03:06:21;13.45;68.96
75281;HTU21D;63874;47.230;39.620;2022-10-04T03:08:58;13.46;68.86
75281;HTU21D;63874;47.230;39.620;2022-10-04T03:11:33;13.48;68.68
75281;HTU21D;63874;47.230;39.620;2022-10-04T03:14:01;13.50;68.45
75281;HTU21D;63874;47.230;39.620;2022-10-04T03:16:35;13.52;68.27
75281;HTU21D;63874;47.230;39.620;2022-10-04T03:19:04;13.53;68.18
75281;HTU21D;63874;47.230;39.620;2022-10-04T03:21:31;13.54;68.03
75281;HTU21D;63874;47.230;39.620;2022-10-04T03:23:58;13.55;67.77
75281;HTU21D;63874;47.230;39.620;2022-10-04T03:26:39;13.56;67.66
75281;HTU21D;63874;47.230;39.620;2022-10-04T03:29:09;13.58;67.47
75281;HTU21D;63874;47.230;39.620;2022-10-04T03:31:42;13.56;67.39
75281;HTU21D;63874;47.230;39.620;2022-10-04T03:34:12;13.53;67.38
75281;HTU21D;63874;47.230;39.620;2022-10-04T03:36:39;13.49;67.39
75281;HTU21D;63874;47.230;39.620;2022-10-04T03:39:08;13.49;67.37
75281;HTU21D;63874;47.230;39.620;2022-10-04T03:41:38;13.45;67.42
75281;HTU21D;63874;47.230;39.620;2022-10-04T03:44:09;13.44;67.39
75281;HTU21D;63874;47.230;39.620;2022-10-04T03:46:37;13.45;67.29
75281;HTU21D;63874;47.230;39.620;2022-10-04T03:49:05;13.46;67.23
75281;HTU21D;63874;47.230;39.620;2022-10-04T03:51:33;13.48;67.17
75281;HTU21D;63874;47.230;39.620;2022-10-04T03:54:00;13.46;67.23
75281;HTU21D;63874;47.230;39.620;2022-10-04T03:56:32;13.50;67.02
75281;HTU21D;63874;47.230;39.620;2022-10-04T03:59:02;13.52;67.02
75281;HTU21D;63874;47.230;39.620;2022-10-04T04:01:40;13.54;67.02
75281;HTU21D;63874;47.230;39.620;2022-10-04T04:04:35;13.56;66.70
75281;HTU21D;63874;47.230;39.620;2022-10-04T04:07:37;13.58;66.56
75281;HTU21D;63874;47.230;39.620;2022-10-04T04:10:27;13.61;66.36
75281;HTU21D;63874;47.230;39.620;2022-10-04T04:13:03;13.61;66.36
75281;HTU21D;63874;47.230;39.620;2022-10-04T04:15:32;13.64;66.37
75281;HTU21D;63874;47.230;39.620;2022-10-04T04:18:02;13.69;66.33
75281;HTU21D;63874;47.230;39.620;2022-10-04T04:20:36;13.81;66.16
75281;HTU21D;63874;47.230;39.620;2022-10-04T04:23:04;13.91;65.83
75281;HTU21D;63874;47.230;39.620;2022-10-04T04:25:38;13.98;65.86
75281;HTU21D;63874;47.230;39.620;2022-10-04T04:30:49;14.15;65.25
75281;HTU21D;63874;47.230;39.620;2022-10-04T04:33:42;14.22;65.25
75281;HTU21D;63874;47.230;39.620;2022-10-04T04:36:11;14.29;65.13
75281;HTU21D;63874;47.230;39.620;2022-10-04T04:38:37;14.34;64.94
75281;HTU21D;63874;47.230;39.620;2022-10-04T04:41:23;14.40;64.91
75281;HTU21D;63874;47.230;39.620;2022-10-04T04:43:49;14.48;64.65
75281;HTU21D;63874;47.230;39.620;2022-10-04T04:46:15;14.50;64.26
75281;HTU21D;63874;47.230;39.620;2022-10-04T04:48:46;14.52;62.83
75281;HTU21D;63874;47.230;39.620;2022-10-04T04:51:21;14.49;62.49
75281;HTU21D;63874;47.230;39.620;2022-10-04T04:53:51;14.44;62.73
75281;HTU21D;63874;47.230;39.620;2022-10-04T04:56:22;14.44;62.73
75281;HTU21D;63874;47.230;39.620;2022-10-04T04:58:51;14.43;63.40
75281;HTU21D;63874;47.230;39.620;2022-10-04T05:01:30;14.49;63.45
75281;HTU21D;63874;47.230;39.620;2022-10-04T05:04:00;14.53;63.32
75281;HTU21D;63874;47.230;39.620;2022-10-04T05:06:32;14.59;63.01
75281;HTU21D;63874;47.230;39.620;2022-10-04T05:08:59;14.67;63.48
75281;HTU21D;63874;47.230;39.620;2022-10-04T05:11:36;14.83;63.77
75281;HTU21D;63874;47.230;39.620;2022-10-04T05:14:07;14.96;63.73
75281;HTU21D;63874;47.230;39.620;2022-10-04T05:16:44;15.06;63.63
75281;HTU21D;63874;47.230;39.620;2022-10-04T05:22:11;15.26;63.69
75281;HTU21D;63874;47.230;39.620;2022-10-04T05:24:43;15.37;63.55
75281;HTU21D;63874;47.230;39.620;2022-10-04T05:27:34;15.49;63.44
75281;HTU21D;63874;47.230;39.620;2022-10-04T05:41:16;15.96;62.56
75281;HTU21D;63874;47.230;39.620;2022-10-04T05:43:48;16.03;62.46
75281;HTU21D;63874;47.230;39.620;2022-10-04T05:48:54;16.18;62.39
75281;HTU21D;63874;47.230;39.620;2022-10-04T05:51:24;16.26;62.19
75281;HTU21D;63874;47.230;39.620;2022-10-04T05:53:52;16.35;61.97
75281;HTU21D;63874;47.230;39.620;2022-10-04T06:10:28;17.01;61.01
75281;HTU21D;63874;47.230;39.620;2022-10-04T06:13:07;17.26;60.62
75281;HTU21D;63874;47.230;39.620;2022-10-04T06:16:08;17.50;60.35
75281;HTU21D;63874;47.230;39.620;2022-10-04T06:24:36;17.94;58.77
75281;HTU21D;63874;47.230;39.620;2022-10-04T06:27:33;17.99;58.25
75281;HTU21D;63874;47.230;39.620;2022-10-04T06:30:12;18.00;58.30
75281;HTU21D;63874;47.230;39.620;2022-10-04T06:39:09;18.00;57.99
75281;HTU21D;63874;47.230;39.620;2022-10-04T06:42:02;17.97;58.16
75281;HTU21D;63874;47.230;39.620;2022-10-04T06:44:55;17.94;58.19
75281;HTU21D;63874;47.230;39.620;2022-10-04T07:01:32;17.83;58.39
75281;HTU21D;63874;47.230;39.620;2022-10-04T07:04:05;17.82;58.52
75281;HTU21D;63874;47.230;39.620;2022-10-04T07:10:31;17.76;58.58
75281;HTU21D;63874;47.230;39.620;2022-10-04T07:13:12;17.70;58.63
75281;HTU21D;63874;47.230;39.620;2022-10-04T07:15:51;17.66;58.58
75281;HTU21D;63874;47.230;39.620;2022-10-04T07:18:24;17.62;58.77
75281;HTU21D;63874;47.230;39.620;2022-10-04T07:21:04;17.60;58.83
75281;HTU21D;63874;47.230;39.620;2022-10-04T07:29:00;17.59;59.19
75281;HTU21D;63874;47.230;39.620;2022-10-04T07:31:50;17.53;59.06
75281;HTU21D;63874;47.230;39.620;2022-10-04T07:34:21;17.49;59.56
75281;HTU21D;63874;47.230;39.620;2022-10-04T07:36:59;17.48;59.71
75281;HTU21D;63874;47.230;39.620;2022-10-04T07:42:17;17.45;60.31
75281;HTU21D;63874;47.230;39.620;2022-10-04T07:45:38;17.44;60.47
75281;HTU21D;63874;47.230;39.620;2022-10-04T07:47:40;17.45;60.87
75281;HTU21D;63874;47.230;39.620;2022-10-04T07:53:02;17.47;60.66
75281;HTU21D;63874;47.230;39.620;2022-10-04T07:56:09;17.46;61.16
75281;HTU21D;63874;47.230;39.620;2022-10-04T08:06:56;17.66;62.14
75281;HTU21D;63874;47.230;39.620;2022-10-04T08:12:11;17.81;61.79
75281;HTU21D;63874;47.230;39.620;2022-10-04T08:14:52;17.83;61.84
75281;HTU21D;63874;47.230;39.620;2022-10-04T08:34:44;18.48;60.70
75281;HTU21D;63874;47.230;39.620;2022-10-04T08:57:05;19.37;58.25
75281;HTU21D;63874;47.230;39.620;2022-10-04T08:59:53;19.24;58.60
75281;HTU21D;63874;47.230;39.620;2022-10-04T09:02:46;19.10;59.01
75281;HTU21D;63874;47.230;39.620;2022-10-04T09:05:50;18.96;59.25
75281;HTU21D;63874;47.230;39.620;2022-10-04T09:11:35;18.72;60.18
75281;HTU21D;63874;47.230;39.620;2022-10-04T09:39:09;18.26;63.21
75281;HTU21D;63874;47.230;39.620;2022-10-04T09:47:25;18.51;63.20
75281;HTU21D;63874;47.230;39.620;2022-10-04T10:01:47;19.91;61.34
75281;HTU21D;63874;47.230;39.620;2022-10-04T10:07:11;23.84;55.56
75281;HTU21D;63874;47.230;39.620;2022-10-04T10:10:15;25.48;50.50
75281;HTU21D;63874;47.230;39.620;2022-10-04T10:13:37;26.06;48.60
75281;HTU21D;63874;47.230;39.620;2022-10-04T10:16:23;25.80;47.59
75281;HTU21D;63874;47.230;39.620;2022-10-04T10:30:11;23.35;49.66
75281;HTU21D;63874;47.230;39.620;2022-10-04T10:36:14;22.08;52.13
75281;HTU21D;63874;47.230;39.620;2022-10-04T10:47:11;21.18;54.71
75281;HTU21D;63874;47.230;39.620;2022-10-04T11:04:01;21.66;53.38
75281;HTU21D;63874;47.230;39.620;2022-10-04T11:17:47;21.53;53.22
75281;HTU21D;63874;47.230;39.620;2022-10-04T11:20:43;21.36;53.47
75281;HTU21D;63874;47.230;39.620;2022-10-04T11:27:10;21.09;54.01
75281;HTU21D;63874;47.230;39.620;2022-10-04T11:29:25;20.94;54.49
75281;HTU21D;63874;47.230;39.620;2022-10-04T11:32:26;20.80;54.99
75281;HTU21D;63874;47.230;39.620;2022-10-04T11:37:38;20.46;55.78
75281;HTU21D;63874;47.230;39.620;2022-10-04T11:46:19;20.10;58.01
75281;HTU21D;63874;47.230;39.620;2022-10-04T12:02:34;19.84;59.35
75281;HTU21D;63874;47.230;39.620;2022-10-04T12:10:41;19.92;58.77
75281;HTU21D;63874;47.230;39.620;2022-10-04T12:16:20;19.67;57.87
75281;HTU21D;63874;47.230;39.620;2022-10-04T12:27:51;19.42;58.04
75281;HTU21D;63874;47.230;39.620;2022-10-04T12:30:31;19.38;57.64
75281;HTU21D;63874;47.230;39.620;2022-10-04T12:33:13;19.39;57.77
75281;HTU21D;63874;47.230;39.620;2022-10-04T12:35:51;19.47;57.79
75281;HTU21D;63874;47.230;39.620;2022-10-04T12:38:48;19.62;57.30
75281;HTU21D;63874;47.230;39.620;2022-10-04T12:41:32;19.68;56.64
75281;HTU21D;63874;47.230;39.620;2022-10-04T12:47:03;19.77;56.36
75281;HTU21D;63874;47.230;39.620;2022-10-04T12:49:41;19.71;56.10
75281;HTU21D;63874;47.230;39.620;2022-10-04T12:52:15;19.62;55.95
75281;HTU21D;63874;47.230;39.620;2022-10-04T13:27:46;19.37;55.54
75281;HTU21D;63874;47.230;39.620;2022-10-04T13:30:20;19.35;55.87
75281;HTU21D;63874;47.230;39.620;2022-10-04T13:35:26;19.30;55.61
75281;HTU21D;63874;47.230;39.620;2022-10-04T13:38:18;19.22;55.70
75281;HTU21D;63874;47.230;39.620;2022-10-04T13:44:18;19.02;55.52
75281;HTU21D;63874;47.230;39.620;2022-10-04T13:49:35;18.82;55.98
75281;HTU21D;63874;47.230;39.620;2022-10-04T14:01:18;18.30;57.35
75281;HTU21D;63874;47.230;39.620;2022-10-04T14:09:43;17.95;58.18
75281;HTU21D;63874;47.230;39.620;2022-10-04T14:18:14;17.67;59.04
75281;HTU21D;63874;47.230;39.620;2022-10-04T14:21:07;17.61;59.22
75281;HTU21D;63874;47.230;39.620;2022-10-04T14:47:09;17.15;60.66
75281;HTU21D;63874;47.230;39.620;2022-10-04T14:54:53;17.04;61.38
75281;HTU21D;63874;47.230;39.620;2022-10-04T15:00:21;16.95;61.71
75281;HTU21D;63874;47.230;39.620;2022-10-04T15:03:06;16.91;61.99
75281;HTU21D;63874;47.230;39.620;2022-10-04T15:08:59;16.74;62.41
75281;HTU21D;63874;47.230;39.620;2022-10-04T15:11:51;16.69;62.72
75281;HTU21D;63874;47.230;39.620;2022-10-04T15:14:38;16.62;62.99
75281;HTU21D;63874;47.230;39.620;2022-10-04T15:17:23;16.59;63.49
75281;HTU21D;63874;47.230;39.620;2022-10-04T15:22:48;16.44;64.14
75281;HTU21D;63874;47.230;39.620;2022-10-04T15:28:01;16.34;64.28
75281;HTU21D;63874;47.230;39.620;2022-10-04T15:30:44;16.29;64.72
75281;HTU21D;63874;47.230;39.620;2022-10-04T15:33:36;16.24;65.02
75281;HTU21D;63874;47.230;39.620;2022-10-04T15:36:13;16.19;65.40
75281;HTU21D;63874;47.230;39.620;2022-10-04T15:39:00;16.15;65.73
75281;HTU21D;63874;47.230;39.620;2022-10-04T15:41:44;16.13;65.98
75281;HTU21D;63874;47.230;39.620;2022-10-04T15:44:55;16.07;66.15
75281;HTU21D;63874;47.230;39.620;2022-10-04T15:50:02;15.99;66.91
75281;HTU21D;63874;47.230;39.620;2022-10-04T15:53:22;15.93;66.91
75281;HTU21D;63874;47.230;39.620;2022-10-04T15:56:02;15.89;67.53
75281;HTU21D;63874;47.230;39.620;2022-10-04T16:01:35;15.77;68.12
75281;HTU21D;63874;47.230;39.620;2022-10-04T16:07:01;15.73;68.49
75281;HTU21D;63874;47.230;39.620;2022-10-04T16:13:10;15.61;69.06
75281;HTU21D;63874;47.230;39.620;2022-10-04T16:15:44;15.56;69.24
75281;HTU21D;63874;47.230;39.620;2022-10-04T16:18:33;15.55;69.45
75281;HTU21D;63874;47.230;39.620;2022-10-04T16:34:54;15.42;70.74
75281;HTU21D;63874;47.230;39.620;2022-10-04T16:37:41;15.42;71.25
75281;HTU21D;63874;47.230;39.620;2022-10-04T16:40:46;15.43;71.13
75281;HTU21D;63874;47.230;39.620;2022-10-04T16:43:29;15.45;71.18
75281;HTU21D;63874;47.230;39.620;2022-10-04T16:46:28;15.46;71.67
75281;HTU21D;63874;47.230;39.620;2022-10-04T16:48:57;15.47;71.99
75281;HTU21D;63874;47.230;39.620;2022-10-04T16:51:41;15.49;72.22
75281;HTU21D;63874;47.230;39.620;2022-10-04T16:55:14;15.55;72.44
75281;HTU21D;63874;47.230;39.620;2022-10-04T16:57:24;15.55;72.61
75281;HTU21D;63874;47.230;39.620;2022-10-04T16:59:59;15.57;72.67
75281;HTU21D;63874;47.230;39.620;2022-10-04T17:08:27;15.55;72.69
75281;HTU21D;63874;47.230;39.620;2022-10-04T17:11:34;15.51;72.55
75281;HTU21D;63874;47.230;39.620;2022-10-04T17:14:34;15.46;72.88
75281;HTU21D;63874;47.230;39.620;2022-10-04T17:20:09;15.36;73.36
75281;HTU21D;63874;47.230;39.620;2022-10-04T17:26:16;15.33;73.68
75281;HTU21D;63874;47.230;39.620;2022-10-04T17:28:34;15.32;73.80
75281;HTU21D;63874;47.230;39.620;2022-10-04T17:31:25;15.32;73.73
75281;HTU21D;63874;47.230;39.620;2022-10-04T17:36:47;15.28;73.96
75281;HTU21D;63874;47.230;39.620;2022-10-04T17:42:14;15.27;74.27
75281;HTU21D;63874;47.230;39.620;2022-10-04T17:48:01;15.28;74.36
75281;HTU21D;63874;47.230;39.620;2022-10-04T17:53:54;15.25;74.44
75281;HTU21D;63874;47.230;39.620;2022-10-04T17:56:47;15.25;74.54
75281;HTU21D;63874;47.230;39.620;2022-10-04T17:59:25;15.26;74.77
75281;HTU21D;63874;47.230;39.620;2022-10-04T18:02:21;15.26;74.79
75281;HTU21D;63874;47.230;39.620;2022-10-04T18:05:17;15.27;74.76
75281;HTU21D;63874;47.230;39.620;2022-10-04T18:11:00;15.30;74.73
75281;HTU21D;63874;47.230;39.620;2022-10-04T18:13:35;15.31;74.87
75281;HTU21D;63874;47.230;39.620;2022-10-04T18:16:22;15.33;74.83
75281;HTU21D;63874;47.230;39.620;2022-10-04T18:18:50;15.31;74.83
75281;HTU21D;63874;47.230;39.620;2022-10-04T18:21:30;15.32;74.89
75281;HTU21D;63874;47.230;39.620;2022-10-04T18:24:00;15.34;74.91
75281;HTU21D;63874;47.230;39.620;2022-10-04T18:26:29;15.34;74.80
75281;HTU21D;63874;47.230;39.620;2022-10-04T18:28:58;15.33;74.87
75281;HTU21D;63874;47.230;39.620;2022-10-04T18:31:34;15.33;74.89
75281;HTU21D;63874;47.230;39.620;2022-10-04T18:39:21;15.28;74.92
75281;HTU21D;63874;47.230;39.620;2022-10-04T18:42:00;15.26;75.16
75281;HTU21D;63874;47.230;39.620;2022-10-04T18:45:03;15.23;75.26
75281;HTU21D;63874;47.230;39.620;2022-10-04T18:47:44;15.16;75.07
75281;HTU21D;63874;47.230;39.620;2022-10-04T18:50:30;15.12;75.19
75281;HTU21D;63874;47.230;39.620;2022-10-04T18:53:18;15.07;75.25
75281;HTU21D;63874;47.230;39.620;2022-10-04T18:56:07;15.01;75.52
75281;HTU21D;63874;47.230;39.620;2022-10-04T18:58:49;14.99;75.65
75281;HTU21D;63874;47.230;39.620;2022-10-04T19:04:37;14.95;76.09
75281;HTU21D;63874;47.230;39.620;2022-10-04T19:07:16;14.93;76.04
75281;HTU21D;63874;47.230;39.620;2022-10-04T19:12:54;14.86;76.08
75281;HTU21D;63874;47.230;39.620;2022-10-04T19:20:54;14.80;76.31
75281;HTU21D;63874;47.230;39.620;2022-10-04T19:26:17;14.78;76.72
75281;HTU21D;63874;47.230;39.620;2022-10-04T19:28:59;14.74;76.71
75281;HTU21D;63874;47.230;39.620;2022-10-04T19:37:13;14.64;77.12
75281;HTU21D;63874;47.230;39.620;2022-10-04T19:45:36;14.59;77.25
75281;HTU21D;63874;47.230;39.620;2022-10-04T19:48:22;14.56;77.20
75281;HTU21D;63874;47.230;39.620;2022-10-04T19:51:01;14.52;77.36
75281;HTU21D;63874;47.230;39.620;2022-10-04T19:56:03;14.47;77.56
75281;HTU21D;63874;47.230;39.620;2022-10-04T19:58:51;14.43;77.49
75281;HTU21D;63874;47.230;39.620;2022-10-04T20:01:20;14.40;77.58
75281;HTU21D;63874;47.230;39.620;2022-10-04T20:03:50;14.36;77.63
75281;HTU21D;63874;47.230;39.620;2022-10-04T20:06:37;14.30;77.61
75281;HTU21D;63874;47.230;39.620;2022-10-04T20:12:30;14.18;78.05
75281;HTU21D;63874;47.230;39.620;2022-10-04T20:17:42;14.14;77.73
75281;HTU21D;63874;47.230;39.620;2022-10-04T20:20:13;14.12;77.67
75281;HTU21D;63874;47.230;39.620;2022-10-04T20:30:58;14.09;77.05
75281;HTU21D;63874;47.230;39.620;2022-10-04T20:36:07;14.07;76.66
75281;HTU21D;63874;47.230;39.620;2022-10-04T20:38:45;14.09;76.41
75281;HTU21D;63874;47.230;39.620;2022-10-04T20:43:59;14.05;75.91
75281;HTU21D;63874;47.230;39.620;2022-10-04T20:46:37;14.04;75.67
75281;HTU21D;63874;47.230;39.620;2022-10-04T20:49:04;14.03;75.26
75281;HTU21D;63874;47.230;39.620;2022-10-04T20:51:39;13.94;75.21
75281;HTU21D;63874;47.230;39.620;2022-10-04T20:54:16;13.95;74.76
75281;HTU21D;63874;47.230;39.620;2022-10-04T20:56:45;13.96;74.54
75281;HTU21D;63874;47.230;39.620;2022-10-04T20:59:14;13.95;74.33
75281;HTU21D;63874;47.230;39.620;2022-10-04T21:01:41;13.95;74.04
75281;HTU21D;63874;47.230;39.620;2022-10-04T21:04:27;13.96;73.61
75281;HTU21D;63874;47.230;39.620;2022-10-04T21:07:08;13.92;73.55
75281;HTU21D;63874;47.230;39.620;2022-10-04T21:09:38;13.93;73.32
75281;HTU21D;63874;47.230;39.620;2022-10-04T21:12:06;13.91;73.09
75281;HTU21D;63874;47.230;39.620;2022-10-04T21:14:36;13.86;73.15
75281;HTU21D;63874;47.230;39.620;2022-10-04T21:19:46;13.78;73.18
75281;HTU21D;63874;47.230;39.620;2022-10-04T21:27:36;13.68;73.33
75281;HTU21D;63874;47.230;39.620;2022-10-04T21:30:13;13.61;73.56
75281;HTU21D;63874;47.230;39.620;2022-10-04T21:32:39;13.60;73.41
75281;HTU21D;63874;47.230;39.620;2022-10-04T21:35:06;13.54;73.51
75281;HTU21D;63874;47.230;39.620;2022-10-04T21:37:33;13.54;73.46
75281;HTU21D;63874;47.230;39.620;2022-10-04T21:40:00;13.48;73.50
75281;HTU21D;63874;47.230;39.620;2022-10-04T21:42:26;13.45;73.46
75281;HTU21D;63874;47.230;39.620;2022-10-04T21:44:52;13.41;73.47
75281;HTU21D;63874;47.230;39.620;2022-10-04T21:47:18;13.39;73.40
75281;HTU21D;63874;47.230;39.620;2022-10-04T21:49:47;13.35;73.43
75281;HTU21D;63874;47.230;39.620;2022-10-04T21:52:13;13.33;73.41
75281;HTU21D;63874;47.230;39.620;2022-10-04T21:54:39;13.36;73.15
75281;HTU21D;63874;47.230;39.620;2022-10-04T21:57:05;13.34;73.12
75281;HTU21D;63874;47.230;39.620;2022-10-04T21:59:31;13.33;73.01
75281;HTU21D;63874;47.230;39.620;2022-10-04T22:01:57;13.31;72.90
75281;HTU21D;63874;47.230;39.620;2022-10-04T22:04:22;13.34;72.63
75281;HTU21D;63874;47.230;39.620;2022-10-04T22:06:48;13.31;72.72
75281;HTU21D;63874;47.230;39.620;2022-10-04T22:09:14;13.30;72.56
75281;HTU21D;63874;47.230;39.620;2022-10-04T22:11:40;13.30;72.36
75281;HTU21D;63874;47.230;39.620;2022-10-04T22:14:06;13.25;72.41
75281;HTU21D;63874;47.230;39.620;2022-10-04T22:16:32;13.22;72.45
75281;HTU21D;63874;47.230;39.620;2022-10-04T22:18:58;13.21;72.22
75281;HTU21D;63874;47.230;39.620;2022-10-04T22:21:24;13.19;72.21
75281;HTU21D;63874;47.230;39.620;2022-10-04T22:23:49;13.20;72.12
75281;HTU21D;63874;47.230;39.620;2022-10-04T22:26:20;13.15;72.16
75281;HTU21D;63874;47.230;39.620;2022-10-04T22:28:49;13.09;72.20
75281;HTU21D;63874;47.230;39.620;2022-10-04T22:31:21;13.10;71.96
75281;HTU21D;63874;47.230;39.620;2022-10-04T22:33:50;13.11;71.85
75281;HTU21D;63874;47.230;39.620;2022-10-04T22:36:22;13.08;71.94
75281;HTU21D;63874;47.230;39.620;2022-10-04T22:38:55;13.05;72.00
75281;HTU21D;63874;47.230;39.620;2022-10-04T22:41:26;13.04;71.98
75281;HTU21D;63874;47.230;39.620;2022-10-04T22:43:55;13.03;71.88
75281;HTU21D;63874;47.230;39.620;2022-10-04T22:46:26;13.01;71.91
75281;HTU21D;63874;47.230;39.620;2022-10-04T22:48:56;12.97;71.97
75281;HTU21D;63874;47.230;39.620;2022-10-04T22:51:21;12.96;71.97
75281;HTU21D;63874;47.230;39.620;2022-10-04T22:53:47;12.93;71.95
75281;HTU21D;63874;47.230;39.620;2022-10-04T22:56:14;12.94;71.86
75281;HTU21D;63874;47.230;39.620;2022-10-04T22:58:40;12.90;71.84
75281;HTU21D;63874;47.230;39.620;2022-10-04T23:01:15;12.90;71.84
75281;HTU21D;63874;47.230;39.620;2022-10-04T23:03:46;12.92;71.61
75281;HTU21D;63874;47.230;39.620;2022-10-04T23:06:12;12.89;71.56
75281;HTU21D;63874;47.230;39.620;2022-10-04T23:08:40;12.90;71.54
75281;HTU21D;63874;47.230;39.620;2022-10-04T23:11:07;12.85;71.65
75281;HTU21D;63874;47.230;39.620;2022-10-04T23:13:33;12.84;71.58
75281;HTU21D;63874;47.230;39.620;2022-10-04T23:16:08;12.81;71.65
75281;HTU21D;63874;47.230;39.620;2022-10-04T23:18:35;12.78;71.66
75281;HTU21D;63874;47.230;39.620;2022-10-04T23:21:01;12.76;71.75
75281;HTU21D;63874;47.230;39.620;2022-10-04T23:23:29;12.74;71.82
75281;HTU21D;63874;47.230;39.620;2022-10-04T23:25:55;12.71;71.90
75281;HTU21D;63874;47.230;39.620;2022-10-04T23:28:22;12.67;71.96
75281;HTU21D;63874;47.230;39.620;2022-10-04T23:30:59;12.61;72.06
75281;HTU21D;63874;47.230;39.620;2022-10-04T23:33:27;12.58;72.11
75281;HTU21D;63874;47.230;39.620;2022-10-04T23:35:53;12.56;72.08
75281;HTU21D;63874;47.230;39.620;2022-10-04T23:38:20;12.51;72.11
75281;HTU21D;63874;47.230;39.620;2022-10-04T23:40:47;12.48;72.17
75281;HTU21D;63874;47.230;39.620;2022-10-04T23:43:19;12.50;72.10
75281;HTU21D;63874;47.230;39.620;2022-10-04T23:45:46;12.46;72.17
75281;HTU21D;63874;47.230;39.620;2022-10-04T23:48:21;12.46;72.13
75281;HTU21D;63874;47.230;39.620;2022-10-04T23:50:48;12.44;72.17
75281;HTU21D;63874;47.230;39.620;2022-10-04T23:53:24;12.40;72.18
75281;HTU21D;63874;47.230;39.620;2022-10-04T23:55:52;12.37;72.21
75281;HTU21D;63874;47.230;39.620;2022-10-04T23:58:26;12.40;72.20
